Time;durP1;ratioP1;P1;durP2;ratioP2;P2;SDS_P1;SDS_P2;PMS_P1;PMS_P2;Temp;Humidity;BMP_temperature;BMP_pressure;BME280_temperature;BME280_humidity;BME280_pressure;Samples;Min_cycle;Max_cycle;Signal;HPM_P1;HPM_P2
2022/01/11 00:02:30;;;;;;;300.87;66.03;;;;;;;-3.62;100.00;102725.38;9840764;30;20051;-89
2022/01/11 00:07:33;;;;;;;239.47;61.57;;;;;;;-4.91;100.00;102695.31;9804099;30;20048;-89
2022/01/11 00:12:34;;;;;;;208.40;54.37;;;;;;;-6.98;100.00;102371.69;9821577;30;20051;-94
2022/01/11 00:17:35;;;;;;;210.70;55.40;;;;;;;-5.84;100.00;102418.25;9806190;30;20090;-95
2022/01/11 00:22:48;;;;;;;256.83;59.80;;;;;;;-4.10;100.00;102846.44;9806040;30;20453;-95
2022/01/11 00:27:49;;;;;;;183.17;53.27;;;;;;;-8.40;100.00;102124.31;9805248;30;20510;-89
2022/01/11 00:32:53;;;;;;;204.37;52.77;;;;;;;-7.15;100.00;102172.94;9818573;30;20055;-94
2022/01/11 00:37:55;;;;;;;163.50;52.90;;;;;;;-5.23;100.00;102504.22;9807206;30;20137;-94
2022/01/11 00:42:59;;;;;;;171.07;50.37;;;;;;;-3.70;100.00;102790.59;9810996;30;20028;-94
2022/01/11 00:48:00;;;;;;;194.60;51.00;;;;;;;-9.01;100.00;102040.22;9812877;30;20044;-94
2022/01/11 00:53:01;;;;;;;282.67;57.40;;;;;;;-6.26;100.00;102395.34;9813444;30;20552;-94
2022/01/11 00:58:05;;;;;;;226.17;51.27;;;;;;;-8.18;100.00;102112.25;9812735;30;20098;-94
2022/01/11 01:03:06;;;;;;;189.60;50.77;;;;;;;-3.20;100.00;103021.25;9812338;30;20047;-95
2022/01/11 01:08:09;;;;;;;142.97;47.87;;;;;;;-7.35;100.00;102374.16;9813088;30;20040;-94
2022/01/11 01:13:14;;;;;;;143.30;51.17;;;;;;;-6.83;100.00;102385.88;9810948;30;20123;-90
2022/01/11 01:18:16;;;;;;;272.83;57.53;;;;;;;-8.09;100.00;102245.22;9810153;30;20044;-90
2022/01/11 01:23:16;;;;;;;186.63;51.90;;;;;;;-4.34;100.00;102884.00;9844025;30;20451;-90
2022/01/11 01:28:20;;;;;;;165.23;51.73;;;;;;;-8.08;100.00;102204.19;9846298;30;20055;-89
2022/01/11 01:33:21;;;;;;;229.17;55.77;;;;;;;-9.42;100.00;101873.09;9846131;30;20090;-89
2022/01/11 01:38:24;;;;;;;251.30;54.10;;;;;;;-7.22;100.00;102284.03;9832792;30;20090;-90
2022/01/11 01:43:25;;;;;;;288.00;58.40;;;;;;;-4.24;100.00;102967.59;9811995;30;20048;-94
2022/01/11 01:48:25;;;;;;;285.80;55.63;;;;;;;-2.84;100.00;103114.75;9811360;30;20502;-95
2022/01/11 01:53:26;;;;;;;167.87;50.17;;;;;;;-6.34;100.00;102522.72;9810689;30;20052;-95
2022/01/11 01:58:29;;;;;;;171.87;51.83;;;;;;;-6.88;100.00;102532.59;9810561;30;20071;-95
2022/01/11 02:03:37;;;;;;;171.43;53.33;;;;;;;-6.30;100.00;102593.06;9812198;30;20046;-96
2022/01/11 02:08:42;;;;;;;167.05;51.03;;;;;;;-8.05;100.00;102305.53;9811444;30;20040;-95
2022/01/11 02:13:43;;;;;;;215.97;51.80;;;;;;;-9.31;100.00;101905.22;9810232;30;20509;-94
2022/01/11 02:18:46;;;;;;;202.70;51.00;;;;;;;-7.59;100.00;102136.72;9810671;30;20514;-96
2022/01/11 02:23:47;;;;;;;178.03;52.90;;;;;;;-6.57;100.00;102467.16;9795340;30;20635;-95
2022/01/11 02:28:48;;;;;;;208.50;52.40;;;;;;;-4.62;100.00;102871.63;9809310;30;20090;-94
2022/01/11 02:33:50;;;;;;;455.90;63.57;;;;;;;-8.92;100.00;102173.09;9809571;30;20052;-95
2022/01/11 02:38:52;;;;;;;420.77;60.20;;;;;;;-8.58;100.00;102288.44;9809900;30;20044;-95
2022/01/11 02:43:53;;;;;;;243.67;56.73;;;;;;;-6.97;100.00;102357.34;9809043;30;20075;-94
2022/01/11 02:48:55;;;;;;;176.07;49.33;;;;;;;-6.46;100.00;102614.66;9808880;30;20036;-94
2022/01/11 02:53:57;;;;;;;176.30;50.30;;;;;;;-6.53;100.00;102575.81;9810034;30;20048;-96
2022/01/11 02:58:58;;;;;;;177.33;55.23;;;;;;;-8.99;100.00;101942.25;9808615;30;20486;-95
2022/01/11 03:03:59;;;;;;;237.00;54.40;;;;;;;-1.77;100.00;103456.09;9808079;30;20039;-94
2022/01/11 03:09:07;;;;;;;259.53;54.87;;;;;;;-3.23;100.00;103205.53;9794419;30;20044;-94
2022/01/11 03:14:07;;;;;;;219.87;51.90;;;;;;;-6.62;100.00;102520.16;9809465;30;20062;-95
2022/01/11 03:19:11;;;;;;;250.67;53.77;;;;;;;-9.06;100.00;101986.31;9808507;30;20554;-95
2022/01/11 03:24:11;;;;;;;200.50;48.90;;;;;;;-7.37;100.00;102483.94;9793842;30;20040;-96
2022/01/11 03:29:12;;;;;;;170.03;48.27;;;;;;;-7.05;100.00;102370.38;9807594;30;20163;-94
2022/01/11 03:34:18;;;;;;;225.30;51.90;;;;;;;-4.90;100.00;102849.31;9807996;30;20127;-95
2022/01/11 03:39:18;;;;;;;198.70;48.63;;;;;;;-10.63;100.00;101709.44;9807727;30;20127;-94
2022/01/11 03:44:21;;;;;;;275.60;51.50;;;;;;;-9.32;100.00;102092.88;9806754;30;20131;-95
2022/01/11 03:49:25;;;;;;;172.93;45.28;;;;;;;-5.89;100.00;102715.44;9807999;30;20509;-95
2022/01/11 03:54:29;;;;;;;164.10;49.37;;;;;;;-7.91;100.00;102345.63;9821066;30;20470;-95
2022/01/11 03:59:30;;;;;;;147.70;51.10;;;;;;;-6.76;100.00;102355.03;9806554;30;20060;-94
2022/01/11 04:04:31;;;;;;;175.37;49.07;;;;;;;-8.21;100.00;102096.41;9791991;30;20127;-95
2022/01/11 04:09:38;;;;;;;266.03;52.13;;;;;;;-7.48;100.00;102443.66;9791803;30;20044;-95
2022/01/11 04:14:41;;;;;;;159.63;48.07;;;;;;;-10.36;100.00;101754.72;9804560;30;20059;-89
2022/01/11 04:19:42;;;;;;;192.03;50.53;;;;;;;-6.16;100.00;102487.56;9817835;30;20039;-89
2022/01/11 04:24:42;;;;;;;172.20;50.97;;;;;;;-5.21;100.00;102571.25;9825428;30;20122;-89
2022/01/11 04:29:46;;;;;;;206.40;48.07;;;;;;;-6.84;100.00;102476.06;9806123;30;20398;-95
2022/01/11 04:34:49;;;;;;;147.93;45.43;;;;;;;-7.76;100.00;102358.97;9806360;30;20040;-94
2022/01/11 04:39:59;;;;;;;132.07;45.10;;;;;;;-6.95;100.00;102458.00;9806796;30;20059;-95
2022/01/11 04:45:00;;;;;;;133.23;46.37;;;;;;;-6.72;100.00;102627.94;9806791;30;20536;-94
2022/01/11 04:50:04;;;;;;;140.27;49.53;;;;;;;-6.44;100.00;102484.09;9806610;30;20067;-95
2022/01/11 04:55:08;;;;;;;178.13;46.37;;;;;;;-8.97;100.00;101975.03;9806669;30;20080;-94
2022/01/11 05:00:09;;;;;;;148.07;47.17;;;;;;;-6.38;100.00;102397.09;9805684;30;20043;-95
2022/01/11 05:05:22;;;;;;;153.80;45.77;;;;;;;-6.48;100.00;102380.78;9794983;30;20093;-94
2022/01/11 05:10:23;;;;;;;143.70;46.97;;;;;;;-6.20;100.00;102684.44;9805381;30;20505;-94
2022/01/11 05:15:28;;;;;;;132.73;46.37;;;;;;;-10.53;100.00;101954.56;9780907;30;20040;-89
2022/01/11 05:20:31;;;;;;;135.40;45.17;;;;;;;-6.46;100.00;102472.63;9767962;30;20120;-89
2022/01/11 05:25:32;;;;;;;144.13;44.53;;;;;;;-6.01;100.00;102575.03;9794540;30;20102;-89
2022/01/11 05:30:35;;;;;;;130.33;41.80;;;;;;;-8.25;100.00;102239.16;9822772;30;20053;-90
2022/01/11 05:35:38;;;;;;;141.27;43.53;;;;;;;-7.65;100.00;102377.84;9825020;30;20592;-89
2022/01/11 05:40:39;;;;;;;136.23;44.27;;;;;;;-3.52;100.00;103106.06;9809447;30;20040;-95
2022/01/11 05:45:44;;;;;;;148.27;47.13;;;;;;;-7.08;100.00;102541.91;9811075;30;20052;-96
2022/01/11 05:50:45;;;;;;;105.00;34.25;;;;;;;-7.25;100.00;102471.59;9796798;30;20048;-93
2022/01/11 05:55:58;;;;;;;168.80;50.43;;;;;;;-9.40;100.00;102068.50;9809373;30;20056;-89
2022/01/11 06:01:04;;;;;;;164.40;51.00;;;;;;;-5.80;100.00;102569.13;9803452;30;20070;-88
2022/01/11 06:06:14;;;;;;;163.40;52.63;;;;;;;-9.32;100.00;102174.66;9786900;30;20060;-88
2022/01/11 06:11:28;;;;;;;166.17;52.37;;;;;;;-1.83;100.00;103489.78;9793421;30;20085;-93
2022/01/11 06:16:37;;;;;;;145.57;49.17;;;;;;;-8.55;100.00;102082.63;9805221;30;20103;-94
2022/01/11 06:21:56;;;;;;;162.57;52.27;;;;;;;-3.19;100.00;103045.41;9803179;30;20032;-93
2022/01/11 06:27:07;;;;;;;163.65;53.97;;;;;;;-6.65;100.00;102399.84;9792548;30;20074;-94
2022/01/11 06:32:13;;;;;;;158.40;51.23;;;;;;;-7.39;100.00;102426.13;9849662;30;20055;-93
2022/01/11 06:37:35;;;;;;;182.63;52.63;;;;;;;-7.76;100.00;102182.50;9834394;30;20039;-88
2022/01/11 06:42:39;;;;;;;181.13;51.97;;;;;;;-9.38;100.00;102023.91;9830655;30;20047;-93
2022/01/11 06:48:09;;;;;;;171.03;51.53;;;;;;;-6.54;100.00;102649.97;9836828;30;20050;-93
2022/01/11 06:53:28;;;;;;;181.23;52.07;;;;;;;-9.70;100.00;102020.59;9837203;30;20050;-93
2022/01/11 06:58:51;;;;;;;164.20;52.77;;;;;;;-3.08;100.00;103188.31;9830953;30;20043;-89
2022/01/11 07:04:10;;;;;;;162.82;51.25;;;;;;;-1.75;100.00;103410.94;9831508;30;20069;-94
2022/01/11 07:09:15;;;;;;;220.53;57.13;;;;;;;-7.65;100.00;102339.53;9819023;30;20059;-93
2022/01/11 07:14:37;;;;;;;177.17;54.37;;;;;;;-7.26;100.00;102504.66;9833170;30;20478;-93
2022/01/11 07:20:01;;;;;;;177.60;53.40;;;;;;;-4.21;100.00;102754.91;9832046;30;20028;-88
2022/01/11 07:25:12;;;;;;;181.27;55.37;;;;;;;-8.40;100.00;102113.63;9853980;30;20067;-88
2022/01/11 07:30:24;;;;;;;200.83;57.63;;;;;;;-9.25;100.00;101902.16;9829405;30;20185;-89
2022/01/11 07:35:37;;;;;;;229.03;63.33;;;;;;;-2.02;100.00;103204.09;9831430;30;20044;-89
2022/01/11 07:40:54;;;;;;;221.40;61.92;;;;;;;-4.76;100.00;102927.16;9826830;30;20149;-88
2022/01/11 07:46:12;;;;;;;;;;;;;;;;;;;;;
2022/01/11 07:51:26;;;;;;;201.90;62.00;;;;;;;-4.03;100.00;103048.63;9830794;30;20040;-88
2022/01/11 07:56:44;;;;;;;192.93;58.03;;;;;;;-4.09;100.00;103045.41;9827149;30;20509;-89
2022/01/11 08:01:52;;;;;;;189.93;58.33;;;;;;;-6.23;100.00;102669.44;9831578;30;20046;-93
2022/01/11 08:07:42;;;;;;;197.87;58.30;;;;;;;-8.66;100.00;102165.22;9832671;30;20147;-93
2022/01/11 08:12:43;;;;;;;181.70;56.50;;;;;;;-5.35;100.00;102806.66;9801858;30;20052;-88
2022/01/11 08:17:43;;;;;;;166.00;54.83;;;;;;;-6.29;100.00;102500.97;9828019;30;20097;-93
2022/01/11 08:22:48;;;;;;;169.73;55.40;;;;;;;-4.65;100.00;102757.13;9828465;30;20435;-93
2022/01/11 08:27:52;;;;;;;171.43;55.70;;;;;;;-6.74;100.00;102546.81;9815309;30;20124;-93
2022/01/11 08:32:52;;;;;;;161.37;53.80;;;;;;;-5.17;100.00;102827.84;9827825;30;20062;-93
2022/01/11 08:37:53;;;;;;;141.33;50.77;;;;;;;-3.83;100.00;102829.28;9827839;30;20040;-93
2022/01/11 08:42:54;;;;;;;139.33;51.43;;;;;;;-5.06;100.00;102661.50;9827888;30;20055;-93
2022/01/11 08:48:02;;;;;;;142.80;51.60;;;;;;;-6.70;100.00;102542.97;9829940;30;20111;-93
2022/01/11 08:53:02;;;;;;;122.77;46.97;;;;;;;-7.35;100.00;102380.34;9826121;30;20142;-87
2022/01/11 08:58:03;;;;;;;112.40;44.37;;;;;;;-6.63;100.00;102471.09;9824708;30;20067;-87
2022/01/11 09:03:03;;;;;;;116.77;47.17;;;;;;;-3.62;100.00;103106.81;9826467;30;20071;-87
2022/01/11 09:08:05;;;;;;;102.97;39.37;;;;;;;-7.61;100.00;102213.53;9824457;30;20548;-88
2022/01/11 09:13:05;;;;;;;99.17;38.50;;;;;;;-5.63;100.00;102516.97;9795148;30;20095;-86
2022/01/11 09:18:06;;;;;;;102.33;41.60;;;;;;;-5.15;100.00;102609.25;9795134;30;20079;-88
2022/01/11 09:23:07;;;;;;;91.30;35.63;;;;;;;-2.49;100.00;102957.59;9780660;30;20398;-87
2022/01/11 09:28:07;;;;;;;81.63;35.10;;;;;;;-5.75;100.00;102416.75;9794908;30;20067;-87
2022/01/11 09:33:08;;;;;;;83.83;35.50;;;;;;;-4.72;100.00;102740.56;9794572;30;20502;-88
2022/01/11 09:38:16;;;;;;;80.90;35.13;;;;;;;-5.17;100.00;102595.09;9811944;30;20040;-93
2022/01/11 09:43:24;;;;;;;76.30;33.27;;;;;;;-4.73;100.00;102849.03;9811436;30;20494;-94
2022/01/11 09:48:27;;;;;;;79.90;34.30;;;;;;;-6.93;100.00;102284.72;9811500;30;20107;-93
2022/01/11 09:53:31;;;;;;;73.15;32.20;;;;;;;-3.16;100.00;102840.44;9811912;30;20074;-93
2022/01/11 09:58:32;;;;;;;78.13;33.27;;;;;;;-5.06;100.00;102822.66;9810650;30;20079;-93
2022/01/11 10:04:06;;;;;;;63.30;29.93;;;;;;;-6.25;100.00;102381.00;9810681;30;20044;-93
2022/01/11 10:09:18;;;;;;;61.50;29.77;;;;;;;-5.14;100.00;102733.69;9796092;30;20148;-93
2022/01/11 10:14:26;;;;;;;63.77;29.17;;;;;;;-3.80;100.00;102737.53;9810335;30;20044;-93
2022/01/11 10:19:26;;;;;;;58.27;29.53;;;;;;;-5.26;100.00;102611.88;9824555;30;20136;-93
2022/01/11 10:24:41;;;;;;;59.57;27.00;;;;;;;-5.43;100.00;102512.88;9808103;30;20171;-87
2022/01/11 10:29:44;;;;;;;55.43;26.90;;;;;;;-4.24;100.00;102632.25;9785320;30;20131;-87
2022/01/11 10:34:48;;;;;;;57.57;27.23;;;;;;;-3.75;100.00;102875.34;9785545;30;20045;-87
2022/01/11 10:39:49;;;;;;;57.07;25.20;;;;;;;-6.21;100.00;102277.97;9812677;30;20143;-87
2022/01/11 10:44:59;;;;;;;52.07;26.37;;;;;;;-4.60;100.00;102719.16;9806460;30;20135;-92
2022/01/11 10:50:22;;;;;;;55.50;27.63;;;;;;;-3.74;100.00;102887.81;9807857;30;20458;-93
2022/01/11 10:55:23;;;;;;;47.13;23.97;;;;;;;-7.24;100.00;102322.59;9795053;30;20040;-93
2022/01/11 11:00:29;;;;;;;51.67;24.13;;;;;;;-5.26;100.00;102464.19;9809243;30;20036;-93
2022/01/11 11:05:33;;;;;;;53.27;26.00;;;;;;;-2.97;100.00;102785.16;9805318;30;20105;-87
2022/01/11 11:10:39;;;;;;;49.43;25.87;;;;;;;-6.79;100.00;102356.09;9805094;30;20131;-87
2022/01/11 11:15:40;;;;;;;48.80;25.30;;;;;;;-4.43;100.00;102552.13;9822401;30;20490;-92
2022/01/11 11:20:40;;;;;;;49.00;22.23;;;;;;;-3.78;100.00;102614.47;9808598;30;20032;-94
2022/01/11 11:25:41;;;;;;;39.93;20.67;;;;;;;-1.66;100.00;102841.22;9805566;30;20115;-88
2022/01/11 11:30:44;;;;;;;27.07;16.17;;;;;;;-3.01;100.00;102562.69;9790302;30;20048;-87
2022/01/11 11:35:46;;;;;;;33.40;16.60;;;;;;;-0.74;100.00;102834.53;9804743;30;20059;-87
2022/01/11 11:40:50;;;;;;;26.50;15.67;;;;;;;-5.38;100.00;102204.72;9805534;30;20036;-94
2022/01/11 11:45:50;;;;;;;31.80;15.77;;;;;;;-1.22;100.00;102884.47;9805921;30;20479;-87
2022/01/11 11:51:02;;;;;;;25.60;13.80;;;;;;;-0.36;100.00;102833.88;9818555;30;20078;-88
2022/01/11 11:56:22;;;;;;;24.73;13.02;;;;;;;0.82;100.00;102916.47;9805793;30;20119;-93
2022/01/11 12:01:41;;;;;;;22.80;12.40;;;;;;;-5.68;100.00;101919.03;9825097;30;20032;-94
2022/01/11 12:06:45;;;;;;;25.00;12.13;;;;;;;-2.93;100.00;102425.50;9822998;30;20064;-93
2022/01/11 12:11:49;;;;;;;23.40;11.48;;;;;;;-0.46;100.00;102943.91;9804672;30;20048;-87
2022/01/11 12:16:50;;;;;;;17.65;10.77;;;;;;;-2.60;100.00;102566.53;9802315;30;20494;-86
2022/01/11 12:21:53;;;;;;;20.63;10.60;;;;;;;2.74;100.00;103194.66;9817715;30;20059;-89
2022/01/11 12:26:57;;;;;;;19.42;11.52;;;;;;;-3.18;100.00;102241.66;9819888;30;20040;-85
2022/01/11 12:32:10;;;;;;;17.77;10.43;;;;;;;-0.30;100.00;102770.25;9819264;30;20044;-89
2022/01/11 12:37:32;;;;;;;17.70;10.32;;;;;;;0.76;100.00;102923.28;9826129;30;20154;-89
2022/01/11 12:42:39;;;;;;;25.83;10.73;;;;;;;-2.00;100.00;102538.13;9831831;30;20200;-90
2022/01/11 12:47:44;;;;;;;21.85;11.05;;;;;;;0.19;100.00;102720.66;9823386;30;20597;-93
2022/01/11 12:52:48;;;;;;;18.98;10.93;;;;;;;-0.13;100.00;102764.19;9836250;30;20257;-93
2022/01/11 12:57:49;;;;;;;22.10;11.35;;;;;;;-3.46;100.00;102202.72;9805171;30;20489;-93
2022/01/11 13:02:55;;;;;;;21.58;10.85;;;;;;;1.37;100.00;103009.06;9805456;30;20089;-89
2022/01/11 13:07:58;;;;;;;19.48;9.80;;;;;;;1.01;100.00;103046.66;9797763;30;20042;-89
2022/01/11 13:13:14;;;;;;;21.07;9.60;;;;;;;2.52;100.00;103182.22;9791397;30;20040;-88
2022/01/11 13:18:15;;;;;;;;;;;;;;;2.40;100.00;103184.25;9846937;30;20036;-94
2022/01/11 13:23:45;;;;;;;21.57;10.47;;;;;;;-1.62;100.00;102596.06;9840299;30;19930;-88
2022/01/11 13:28:51;;;;;;;19.83;9.82;;;;;;;-3.27;100.00;102369.00;9844367;30;20055;-93
2022/01/11 13:33:53;;;;;;;21.92;10.88;;;;;;;-2.27;100.00;102670.81;9827501;30;20477;-92
2022/01/11 13:38:56;;;;;;;18.07;9.60;;;;;;;-2.73;100.00;102632.25;9840595;30;20162;-86
2022/01/11 13:43:58;;;;;;;23.30;11.17;;;;;;;-3.17;100.00;102278.34;9830434;30;20035;-86
2022/01/11 13:48:58;;;;;;;22.97;11.00;;;;;;;-2.24;100.00;102501.41;9836802;30;20489;-92
2022/01/11 13:54:00;;;;;;;20.93;10.37;;;;;;;-2.10;100.00;102581.22;9845273;30;20060;-93
2022/01/11 13:59:11;;;;;;;;;;;;;;;;;;;;;
2022/01/11 14:04:19;;;;;;;20.85;9.93;;;;;;;-2.89;100.00;102518.59;9843603;30;20035;-88
2022/01/11 14:09:55;;;;;;;18.97;8.97;;;;;;;0.43;100.00;102862.16;9823563;30;20422;-88
2022/01/11 14:15:00;;;;;;;21.00;9.80;;;;;;;-1.39;100.00;102636.44;9840399;30;20076;-89
2022/01/11 14:20:05;;;;;;;22.50;11.00;;;;;;;-3.85;100.00;102283.13;9823228;30;20493;-88
2022/01/11 14:25:13;;;;;;;21.10;11.27;;;;;;;-3.50;100.00;102330.50;9840642;30;20028;-87
2022/01/11 14:30:39;;;;;;;23.70;10.90;;;;;;;-4.61;100.00;102110.03;9830937;30;20479;-89
2022/01/11 14:36:06;;;;;;;23.08;12.98;;;;;;;0.55;100.00;102924.22;9857564;30;20048;-92
2022/01/11 14:41:59;;;;;;;;;;;;;;;;;;;;;
2022/01/11 14:47:08;;;;;;;21.37;10.37;;;;;;;-2.02;100.00;102561.69;9881666;29;20052;-89
2022/01/11 14:52:12;;;;;;;27.73;12.95;;;;;;;-0.85;100.00;102822.78;9845857;30;20147;-87
2022/01/11 14:57:44;;;;;;;;;;;;;;;;;;;;;
2022/01/11 15:03:19;;;;;;;;;;;;;;;;;;;;;
2022/01/11 15:09:28;;;;;;;26.77;11.67;;;;;;;-3.48;100.00;102305.16;9851432;30;20126;-90
2022/01/11 15:20:37;;;;;;;;;;;;;;;;;;;;;
2022/01/11 15:26:19;;;;;;;;;;;;;;;;;;;;;
2022/01/11 15:32:14;;;;;;;;;;;;;;;;;;;;;
2022/01/11 15:38:07;;;;;;;;;;;;;;;;;;;;;
2022/01/11 15:43:50;;;;;;;;;;;;;;;;;;;;;
2022/01/11 15:49:22;;;;;;;30.67;13.57;;;;;;;-5.23;100.00;102364.63;9698805;30;20042;-90
2022/01/11 15:54:45;;;;;;;27.03;12.70;;;;;;;-1.30;100.00;102906.75;9720619;30;20513;-89
2022/01/11 15:59:49;;;;;;;25.87;11.60;;;;;;;-2.12;100.00;102684.88;9725637;30;20037;-89
2022/01/11 16:05:19;;;;;;;27.63;12.48;;;;;;;-2.78;100.00;102704.53;9712009;30;20045;-89
2022/01/11 16:16:53;;;;;;;27.43;11.40;;;;;;;-5.07;100.00;102133.38;9711556;30;20114;-90
2022/01/11 16:22:48;;;;;;;27.73;12.03;;;;;;;-2.51;100.00;102684.44;9837839;30;20047;-91
2022/01/11 16:28:12;;;;;;;;;;;;;;;;;;;;;
2022/01/11 16:34:07;;;;;;;;;;;;;;;;;;;;;
2022/01/11 16:40:19;;;;;;;;;;;;;;;;;;;;;
2022/01/11 16:46:41;;;;;;;;;;;;;;;;;;;;;
2022/01/11 17:12:17;;;;;;;;;;;;;;;;;;;;;
2022/01/11 17:37:39;;;;;;;;;;;;;;;;;;;;;
2022/01/11 17:50:15;;;;;;;;;;;;;;;;;;;;;
2022/01/11 17:57:09;;;;;;;;;;;;;;;;;;;;;
2022/01/11 18:16:01;;;;;;;;;;;;;;;;;;;;;
2022/01/11 18:21:33;;;;;;;31.23;13.60;;;;;;;-4.30;100.00;102456.13;9677818;30;20053;-93
2022/01/11 18:26:34;;;;;;;26.80;12.63;;;;;;;-3.94;100.00;102381.56;9846331;30;20063;-93
2022/01/11 18:31:49;;;;;;;30.17;13.37;;;;;;;-3.02;100.00;102571.75;9848129;30;20118;-94
2022/01/11 18:37:01;;;;;;;31.13;14.13;;;;;;;-2.59;100.00;102773.19;9847815;30;20092;-93
2022/01/11 18:49:08;;;;;;;;;;;;;;;;;;;;;
2022/01/11 18:54:15;;;;;;;;;;;;;;;;;;;;;
2022/01/11 18:59:54;;;;;;;;;;;;;;;;;;;;;
2022/01/11 19:06:50;;;;;;;;;;;;;;;;;;;;;
2022/01/11 19:12:36;;;;;;;;;;;;;;;;;;;;;
2022/01/11 19:43:34;;;;;;;39.93;16.70;;;;;;;-5.03;100.00;102523.44;9621964;30;20047;-94
2022/01/11 19:48:59;;;;;;;40.20;17.80;;;;;;;-3.26;100.00;102747.81;9816885;30;20043;-94
2022/01/11 19:54:08;;;;;;;38.17;16.53;;;;;;;-6.04;100.00;102253.47;9847105;30;20054;-94
2022/01/11 19:59:09;;;;;;;36.53;17.50;;;;;;;-6.52;100.00;102267.59;9850591;30;20109;-94
2022/01/11 20:04:17;;;;;;;47.20;18.97;;;;;;;-1.00;100.00;102953.00;9850806;30;20043;-93
2022/01/11 20:09:23;;;;;;;;;;;;;;;1.68;100.00;103365.53;9852439;30;20047;-93
2022/01/11 20:14:24;;;;;;;43.10;17.63;;;;;;;-4.62;100.00;102501.56;9847467;30;20004;-93
2022/01/11 20:19:47;;;;;;;54.60;20.47;;;;;;;-1.30;100.00;102876.13;9850347;30;20043;-95
2022/01/11 20:30:23;;;;;;;56.03;22.90;;;;;;;-2.85;100.00;102711.41;9864415;29;20040;-95
2022/01/11 20:35:29;;;;;;;59.77;24.57;;;;;;;-4.60;100.00;102528.34;9848372;30;20036;-95
2022/01/11 20:40:37;;;;;;;64.72;23.45;;;;;;;-5.18;100.00;102343.66;9845752;30;20036;-95
2022/01/11 20:45:43;;;;;;;63.43;25.77;;;;;;;0.63;100.00;103399.81;9846111;30;20043;-96
2022/01/11 20:51:10;;;;;;;68.00;26.20;;;;;;;-4.29;100.00;102409.41;9847964;30;20040;-95
2022/01/11 21:09:57;;;;;;;;;;;;;;;;;;;;;
2022/01/11 21:15:36;;;;;;;84.00;32.90;;;;;;;-1.38;100.00;103182.13;9783164;30;20144;-95
2022/01/11 21:33:51;;;;;;;83.67;32.37;;;;;;;-5.30;100.00;102309.69;9890800;30;20052;-93
2022/01/11 21:38:53;;;;;;;88.30;36.67;;;;;;;-2.97;100.00;102795.91;9853495;30;20504;-93
2022/01/11 21:44:04;;;;;;;76.38;32.30;;;;;;;-4.64;100.00;102569.84;9854921;30;20103;-94
2022/01/11 21:50:28;;;;;;;;;;;;;;;;;;;;;
2022/01/11 22:02:26;;;;;;;86.93;34.60;;;;;;;-3.34;100.00;102653.28;9892339;30;20039;-94
2022/01/11 22:07:51;;;;;;;107.23;39.83;;;;;;;-4.03;100.00;102518.63;9851998;30;20058;-94
2022/01/11 22:13:31;;;;;;;112.53;42.73;;;;;;;-2.69;100.00;102693.03;9856050;30;20043;-95
2022/01/11 22:18:47;;;;;;;;;;;;;;;;;;;;;
2022/01/11 22:24:41;;;;;;;;;;;;;;;;;;;;;
2022/01/11 22:30:06;;;;;;;115.33;43.27;;;;;;;-1.28;100.00;103064.22;9850224;30;20071;-95
2022/01/11 22:35:20;;;;;;;;;;;;;;;;;;;;;
2022/01/11 22:40:54;;;;;;;118.57;46.67;;;;;;;-5.34;100.00;102274.16;9866215;30;20066;-95
2022/01/11 22:46:56;;;;;;;;;;;;;;;;;;;;;
2022/01/11 22:52:49;;;;;;;;;;;;;;;;;;;;;
2022/01/11 22:58:22;;;;;;;;;;;;;;;;;;;;;
2022/01/11 23:03:46;;;;;;;124.80;46.53;;;;;;;-4.95;100.00;102362.56;9726514;30;20086;-90
2022/01/11 23:08:55;;;;;;;116.83;48.53;;;;;;;-2.56;100.00;102902.38;9715766;30;20059;-96
2022/01/11 23:20:05;;;;;;;136.40;50.03;;;;;;;-3.47;100.00;102753.88;9821189;30;20051;-91
2022/01/11 23:25:30;;;;;;;;;;;;;;;;;;;;;
2022/01/11 23:31:00;;;;;;;;;;;;;;;;;;;;;
2022/01/11 23:36:31;;;;;;;;;;;;;;;;;;;;;
2022/01/11 23:42:33;;;;;;;;;;;;;;;;;;;;;
2022/01/11 23:47:51;;;;;;;134.83;50.00;;;;;;;-1.16;100.00;102947.97;9701089;30;20586;-94
2022/01/11 23:53:02;;;;;;;134.45;50.58;;;;;;;-5.70;100.00;102426.19;9750157;30;20573;-95
2022/01/11 23:58:46;;;;;;;152.23;52.13;;;;;;;-0.01;100.00;103144.06;9809807;30;20521;-95
